Time;durP1;ratioP1;P1;durP2;ratioP2;P2;SDS_P1;SDS_P2;PMS_P1;PMS_P2;Temp;Humidity;BMP_temperature;BMP_pressure;BME280_temperature;BME280_humidity;BME280_pressure;Samples;Min_cycle;Max_cycle;Signal;HPM_P1;HPM_P2
2022/12/31 00:01:39;;;;;;;24.80;19.50;;;;;;;4.33;100.00;98166.31;107861;1266;58923;-65
2022/12/31 00:04:07;;;;;;;31.50;22.20;;;;;;;4.30;100.00;98164.17;107850;1262;70124;-63
2022/12/31 00:06:36;;;;;;;33.20;24.70;;;;;;;4.27;100.00;98166.52;107922;1266;69789;-63
2022/12/31 00:09:06;;;;;;;25.60;21.00;;;;;;;4.24;100.00;98169.38;107466;1266;628777;-63
2022/12/31 00:11:36;;;;;;;23.50;18.50;;;;;;;4.22;100.00;98172.73;107728;1266;58929;-63
2022/12/31 00:14:05;;;;;;;24.20;19.40;;;;;;;4.23;100.00;98175.10;107805;1270;58964;-63
2022/12/31 00:16:40;;;;;;;24.20;19.00;;;;;;;4.24;100.00;98176.63;107913;1265;70476;-63
2022/12/31 00:19:10;;;;;;;20.40;15.70;;;;;;;4.24;100.00;98178.54;107797;1263;70027;-63
2022/12/31 00:21:39;;;;;;;26.50;19.40;;;;;;;4.25;100.00;98175.58;107906;1266;69003;-63
2022/12/31 00:24:11;;;;;;;34.00;23.20;;;;;;;4.26;100.00;98178.98;107846;1263;58982;-63
2022/12/31 00:26:41;;;;;;;32.30;22.40;;;;;;;4.26;100.00;98179.17;107710;1267;58899;-63
2022/12/31 00:29:10;;;;;;;28.20;19.90;;;;;;;4.25;100.00;98175.73;107724;1266;70774;-63
2022/12/31 00:31:39;;;;;;;32.80;24.70;;;;;;;4.23;100.00;98181.15;107774;1264;69390;-63
2022/12/31 00:34:08;;;;;;;27.90;19.10;;;;;;;4.22;100.00;98182.08;107809;1266;69264;-63
2022/12/31 00:36:38;;;;;;;32.50;22.50;;;;;;;4.19;100.00;98186.12;107819;1267;58889;-63
2022/12/31 00:39:09;;;;;;;31.90;23.20;;;;;;;4.16;100.00;98187.63;107858;1267;58887;-63
2022/12/31 00:41:38;;;;;;;28.60;22.10;;;;;;;4.13;100.00;98188.95;107797;1266;69884;-63
2022/12/31 00:44:10;;;;;;;30.00;21.90;;;;;;;4.11;100.00;98192.63;107824;1266;69701;-63
2022/12/31 00:46:40;;;;;;;30.30;20.20;;;;;;;4.07;100.00;98197.21;107831;1263;69170;-63
2022/12/31 00:49:08;;;;;;;27.80;21.20;;;;;;;4.05;100.00;98194.38;107937;1266;58905;-63
2022/12/31 00:51:37;;;;;;;27.00;21.40;;;;;;;4.04;100.00;98189.42;107764;1263;58961;-63
2022/12/31 00:54:08;;;;;;;26.40;20.40;;;;;;;4.03;100.00;98193.04;107837;1262;70680;-63
2022/12/31 00:56:37;;;;;;;25.00;18.10;;;;;;;4.04;100.00;98196.98;107758;1262;67607;-63
2022/12/31 00:59:06;;;;;;;27.80;20.10;;;;;;;4.05;100.00;98195.56;107735;1266;68439;-64
2022/12/31 01:01:38;;;;;;;24.90;18.20;;;;;;;4.04;100.00;98197.50;107933;1267;58895;-64
2022/12/31 01:04:14;;;;;;;23.30;18.30;;;;;;;4.03;100.00;98196.16;107969;1263;58918;-64
2022/12/31 01:06:44;;;;;;;29.50;21.80;;;;;;;4.02;100.00;98194.80;107944;1267;71044;-64
2022/12/31 01:09:15;;;;;;;24.30;19.30;;;;;;;4.01;100.00;98193.98;107893;1267;69181;-64
2022/12/31 01:11:44;;;;;;;27.60;22.20;;;;;;;4.01;100.00;98198.48;107729;1267;69725;-64
2022/12/31 01:14:19;;;;;;;23.00;20.10;;;;;;;3.99;100.00;98199.23;107951;1266;58959;-64
2022/12/31 01:16:51;;;;;;;20.90;17.30;;;;;;;3.98;100.00;98196.32;107718;1267;58892;-64
2022/12/31 01:19:26;;;;;;;23.50;18.00;;;;;;;3.98;100.00;98199.10;107707;1267;71196;-64
2022/12/31 01:21:56;;;;;;;23.60;18.80;;;;;;;3.97;100.00;98202.92;107756;1263;69683;-65
2022/12/31 01:24:26;;;;;;;22.30;18.20;;;;;;;3.92;100.00;98202.58;107781;1267;69880;-64
2022/12/31 01:26:56;;;;;;;24.00;18.50;;;;;;;3.88;100.00;98199.62;107815;1267;58955;-64
2022/12/31 01:29:26;;;;;;;30.40;22.20;;;;;;;3.83;100.00;98201.85;107836;1267;58935;-64
2022/12/31 01:31:56;;;;;;;25.70;18.00;;;;;;;3.78;100.00;98203.73;107901;1266;69777;-64
2022/12/31 01:34:25;;;;;;;25.70;19.40;;;;;;;3.72;100.00;98207.36;107967;1267;69840;-64
2022/12/31 01:36:55;;;;;;;21.90;15.90;;;;;;;3.66;100.00;98210.50;107680;1263;68523;-63
2022/12/31 01:39:25;;;;;;;25.30;18.90;;;;;;;3.57;100.00;98209.92;107731;1267;59022;-63
2022/12/31 01:41:54;;;;;;;22.90;18.80;;;;;;;3.49;100.00;98212.95;107879;1263;58965;-63
2022/12/31 01:44:24;;;;;;;23.00;18.10;;;;;;;3.41;100.00;98216.30;107910;1263;70497;-63
2022/12/31 01:46:57;;;;;;;23.80;19.60;;;;;;;3.33;100.00;98215.35;107840;1264;68445;-63
2022/12/31 01:49:26;;;;;;;23.50;18.30;;;;;;;3.26;100.00;98213.83;107682;1267;69465;-63
2022/12/31 01:52:02;;;;;;;24.30;19.30;;;;;;;3.22;100.00;98209.11;107692;1266;58955;-63
2022/12/31 01:54:35;;;;;;;24.30;19.70;;;;;;;3.19;100.00;98209.05;107872;1264;58953;-63
2022/12/31 01:57:05;;;;;;;32.60;24.20;;;;;;;3.14;100.00;98207.81;107899;1264;69772;-63
2022/12/31 01:59:35;;;;;;;27.70;20.40;;;;;;;3.09;100.00;98209.17;107956;1267;69679;-62
2022/12/31 02:02:05;;;;;;;21.30;15.30;;;;;;;3.02;100.00;98209.37;107902;1267;69811;-63
2022/12/31 02:04:34;;;;;;;24.20;18.30;;;;;;;2.97;100.00;98211.95;107680;1266;58991;-62
2022/12/31 02:07:07;;;;;;;25.20;19.70;;;;;;;2.93;100.00;98214.14;107749;1262;58889;-62
2022/12/31 02:09:39;;;;;;;24.50;19.50;;;;;;;2.90;100.00;98210.79;107956;1266;70758;-63
2022/12/31 02:12:10;;;;;;;32.40;22.60;;;;;;;2.83;100.00;98207.35;107859;1266;68516;-62
2022/12/31 02:14:47;;;;;;;96.70;30.30;;;;;;;2.78;100.00;98204.42;107841;1266;69654;-62
2022/12/31 02:17:16;;;;;;;49.50;27.10;;;;;;;2.75;100.00;98202.27;107770;1263;59026;-63
2022/12/31 02:20:22;;;;;;;41.90;23.70;;;;;;;2.66;100.00;98199.07;107715;1266;58894;-62
2022/12/31 02:23:20;;;;;;;29.10;19.80;;;;;;;2.48;100.00;98202.67;107766;1267;70569;-62
2022/12/31 02:26:06;;;;;;;134.60;30.00;;;;;;;2.37;100.00;98202.64;107857;1267;69337;-62
2022/12/31 02:29:23;;;;;;;27.20;19.20;;;;;;;2.27;100.00;98209.45;107974;1266;69445;-63
2022/12/31 02:32:01;;;;;;;22.20;16.30;;;;;;;2.11;100.00;98208.83;107312;1275;59056;-63
2022/12/31 02:34:43;;;;;;;21.40;14.50;;;;;;;2.06;100.00;98213.59;107305;1275;58899;-62
2022/12/31 02:37:15;;;;;;;20.00;14.10;;;;;;;2.04;100.00;98217.96;107553;1267;69827;-62
2022/12/31 02:39:45;;;;;;;19.40;12.60;;;;;;;2.03;100.00;98212.48;107837;1266;68363;-62
2022/12/31 02:42:14;;;;;;;;;;;;;;;2.04;100.00;98218.31;107950;1266;69242;-62
2022/12/31 02:44:43;;;;;;;29.80;18.20;;;;;;;1.99;100.00;98224.61;107790;1266;58907;-62
2022/12/31 02:47:33;;;;;;;28.10;19.90;;;;;;;1.91;100.00;98230.67;107759;1262;58929;-62
2022/12/31 02:50:28;;;;;;;22.10;15.20;;;;;;;1.85;100.00;98229.27;107707;1267;70493;-62
2022/12/31 02:53:38;;;;;;;21.80;13.90;;;;;;;1.84;100.00;98228.94;107823;1266;68085;-62
2022/12/31 02:56:30;;;;;;;21.70;14.30;;;;;;;1.89;100.00;98228.66;107951;1267;68286;-62
2022/12/31 03:02:13;;;;;;;43.80;19.00;;;;;;;1.94;100.00;98234.73;107717;1267;58955;-62
2022/12/31 03:04:50;;;;;;;26.70;17.50;;;;;;;1.89;100.00;98225.75;107764;1266;70628;-62
2022/12/31 03:07:24;;;;;;;24.90;14.80;;;;;;;1.83;100.00;98227.26;107903;1266;69315;-62
2022/12/31 03:09:54;;;;;;;23.40;17.80;;;;;;;1.79;100.00;98233.54;107975;1266;69140;-62
2022/12/31 03:12:48;;;;;;;30.70;18.00;;;;;;;1.75;100.00;98237.92;107765;1266;58949;-62
2022/12/31 03:15:24;;;;;;;18.30;11.90;;;;;;;1.74;100.00;98243.45;107708;1269;58898;-64
2022/12/31 03:18:12;;;;;;;22.10;14.20;;;;;;;1.75;100.00;98239.98;107702;1262;70471;-64
2022/12/31 03:23:48;;;;;;;32.20;17.70;;;;;;;1.74;100.00;98236.59;107828;1267;68833;-63
2022/12/31 03:26:19;;;;;;;19.20;13.30;;;;;;;1.68;100.00;98242.07;107638;1267;58958;-63
2022/12/31 03:28:49;;;;;;;;;;;;;;;1.61;100.00;98239.14;107850;1266;58954;-63
2022/12/31 03:31:19;;;;;;;17.10;11.90;;;;;;;1.56;100.00;98241.13;107803;1264;69574;-63
2022/12/31 03:33:49;;;;;;;18.20;13.70;;;;;;;1.52;100.00;98243.30;107776;1266;69093;-63
2022/12/31 03:36:19;;;;;;;29.80;22.40;;;;;;;1.49;100.00;98243.03;107968;1267;69501;-63
2022/12/31 03:38:49;;;;;;;44.20;27.20;;;;;;;1.53;100.00;98244.64;107824;1263;58918;-63
2022/12/31 03:41:20;;;;;;;39.90;24.30;;;;;;;1.66;100.00;98245.70;107769;1266;58887;-63
2022/12/31 03:43:50;;;;;;;39.70;22.40;;;;;;;1.72;100.00;98250.72;107820;1267;71194;-63
2022/12/31 03:46:19;;;;;;;89.20;26.20;;;;;;;1.70;100.00;98255.60;107835;1264;69056;-63
2022/12/31 03:48:49;;;;;;;37.20;15.00;;;;;;;1.60;100.00;98250.14;107764;1267;69785;-63
2022/12/31 03:51:20;;;;;;;30.20;18.40;;;;;;;1.54;100.00;98256.13;107908;1266;58967;-63
2022/12/31 03:53:49;;;;;;;37.40;18.60;;;;;;;1.46;100.00;98255.45;107839;1267;58981;-63
2022/12/31 03:56:19;;;;;;;23.20;15.10;;;;;;;1.34;100.00;98256.75;107819;1261;70018;-63
2022/12/31 03:58:48;;;;;;;20.20;14.80;;;;;;;1.24;100.00;98257.85;107939;1267;69649;-63
2022/12/31 04:01:18;;;;;;;21.30;13.90;;;;;;;1.16;100.00;98261.80;107974;1267;69881;-63
2022/12/31 04:03:48;;;;;;;;;;;;;;;1.08;100.00;98260.59;107921;1267;58894;-63
2022/12/31 04:06:17;;;;;;;17.20;11.80;;;;;;;1.01;100.00;98263.31;107881;1266;58894;-63
2022/12/31 04:08:46;;;;;;;20.80;11.80;;;;;;;0.96;100.00;98266.50;107776;1266;70263;-63
2022/12/31 04:11:16;;;;;;;15.60;11.40;;;;;;;0.94;100.00;98274.77;107771;1266;68188;-63
2022/12/31 04:13:48;;;;;;;57.60;18.30;;;;;;;0.93;100.00;98279.60;107853;1265;67850;-63
2022/12/31 04:16:18;;;;;;;26.90;15.90;;;;;;;0.92;100.00;98280.30;107795;1266;58946;-63
2022/12/31 04:18:48;;;;;;;23.70;15.80;;;;;;;0.90;100.00;98282.42;107978;1269;58890;-63
2022/12/31 04:21:17;;;;;;;24.40;15.10;;;;;;;0.87;100.00;98280.77;107878;1266;71799;-63
2022/12/31 04:23:46;;;;;;;22.40;14.40;;;;;;;0.84;100.00;98275.52;107841;1266;68348;-63
2022/12/31 04:26:15;;;;;;;23.10;16.30;;;;;;;0.80;100.00;98278.85;107791;1267;67446;-63
2022/12/31 04:28:44;;;;;;;20.00;13.70;;;;;;;0.76;100.00;98279.09;107913;1266;58891;-63
2022/12/31 04:31:14;;;;;;;18.60;11.80;;;;;;;0.73;100.00;98283.11;107854;1267;58870;-63
2022/12/31 04:33:43;;;;;;;18.80;13.00;;;;;;;0.71;100.00;98290.52;107821;1267;68655;-63
2022/12/31 04:36:12;;;;;;;18.90;11.70;;;;;;;0.70;100.00;98295.34;107887;1267;68720;-63
2022/12/31 04:38:42;;;;;;;20.90;10.30;;;;;;;0.69;100.00;98292.27;107920;1267;68325;-63
2022/12/31 04:41:19;;;;;;;24.60;13.50;;;;;;;0.70;100.00;98294.67;107896;1263;58870;-63
2022/12/31 04:43:51;;;;;;;32.30;13.40;;;;;;;0.62;100.00;98299.42;107921;1267;58957;-63
2022/12/31 04:46:24;;;;;;;70.90;18.70;;;;;;;0.59;100.00;98298.82;107959;1267;71677;-63
2022/12/31 04:48:53;;;;;;;35.10;15.00;;;;;;;0.52;100.00;98297.91;107973;1267;69687;-63
2022/12/31 04:51:24;;;;;;;19.80;12.40;;;;;;;0.45;100.00;98303.18;107879;1267;68345;-63
2022/12/31 04:53:53;;;;;;;;;;;;;;;0.39;100.00;98307.77;107870;1267;58927;-63
2022/12/31 04:56:23;;;;;;;210.30;27.00;;;;;;;0.32;100.00;98305.64;107956;1267;58960;-63
2022/12/31 04:58:53;;;;;;;;;;;;;;;0.29;100.00;98301.42;107874;1267;70637;-63
2022/12/31 05:01:22;;;;;;;15.90;11.30;;;;;;;0.28;100.00;98300.06;107829;1267;68265;-63
2022/12/31 05:03:52;;;;;;;27.30;14.30;;;;;;;0.28;100.00;98303.66;107850;1267;68328;-63
2022/12/31 05:06:22;;;;;;;25.80;12.50;;;;;;;0.30;100.00;98307.56;107877;1267;58977;-63
2022/12/31 05:08:53;;;;;;;22.90;11.70;;;;;;;0.37;100.00;98309.50;107866;1267;58864;-63
2022/12/31 05:11:22;;;;;;;22.30;13.90;;;;;;;0.46;100.00;98316.89;107960;1263;69589;-63
2022/12/31 05:13:51;;;;;;;28.30;14.60;;;;;;;0.54;100.00;98318.98;107807;1266;70017;-63
2022/12/31 05:16:20;;;;;;;21.80;11.90;;;;;;;0.59;100.00;98320.26;107926;1272;69907;-63
2022/12/31 05:18:49;;;;;;;18.40;12.90;;;;;;;0.69;100.00;98322.47;107960;1267;58984;-63
2022/12/31 05:21:20;;;;;;;20.90;14.50;;;;;;;0.77;100.00;98321.11;107884;1263;58888;-63
2022/12/31 05:23:49;;;;;;;17.60;12.80;;;;;;;0.84;100.00;98323.73;107773;1266;71104;-63
2022/12/31 05:26:18;;;;;;;19.20;14.30;;;;;;;0.88;100.00;98334.82;107865;1267;69223;-63
2022/12/31 05:28:47;;;;;;;30.40;15.70;;;;;;;0.89;100.00;98340.47;107964;1267;69462;-63
2022/12/31 05:31:17;;;;;;;26.60;17.40;;;;;;;0.91;100.00;98340.75;107805;1267;58954;-63
2022/12/31 05:33:45;;;;;;;23.70;15.90;;;;;;;0.95;100.00;98337.23;107868;1267;58889;-63
2022/12/31 05:36:14;;;;;;;20.70;14.10;;;;;;;0.98;100.00;98334.77;107895;1263;71112;-63
2022/12/31 05:38:44;;;;;;;46.30;18.70;;;;;;;0.96;100.00;98339.79;107992;1267;69050;-63
2022/12/31 05:41:12;;;;;;;30.10;18.00;;;;;;;0.86;100.00;98335.36;107796;1267;69746;-63
2022/12/31 05:43:41;;;;;;;19.80;13.30;;;;;;;0.74;100.00;98333.01;107793;1267;58956;-62
2022/12/31 05:46:11;;;;;;;25.90;17.30;;;;;;;0.71;100.00;98331.54;107789;1269;58850;-63
2022/12/31 05:48:40;;;;;;;18.30;13.80;;;;;;;0.66;100.00;98332.65;107990;1264;71182;-63
2022/12/31 05:51:09;;;;;;;20.20;15.20;;;;;;;0.61;100.00;98335.48;107802;1267;69075;-63
2022/12/31 05:53:39;;;;;;;19.80;13.80;;;;;;;0.58;100.00;98337.60;107936;1268;69241;-63
2022/12/31 05:56:08;;;;;;;18.70;14.00;;;;;;;0.57;100.00;98340.36;107973;1272;58950;-63
2022/12/31 05:58:37;;;;;;;19.50;12.50;;;;;;;0.58;100.00;98342.74;107921;1267;58890;-63
2022/12/31 06:01:07;;;;;;;19.80;14.10;;;;;;;0.64;100.00;98347.95;107962;1267;70447;-63
2022/12/31 06:03:36;;;;;;;28.70;19.30;;;;;;;0.76;100.00;98352.02;107949;1271;68604;-63
2022/12/31 06:06:06;;;;;;;27.30;18.10;;;;;;;0.86;100.00;98358.35;107988;1267;68647;-64
2022/12/31 06:08:35;;;;;;;23.70;15.50;;;;;;;0.97;100.00;98361.94;107960;1264;58950;-63
2022/12/31 06:11:04;;;;;;;27.30;16.80;;;;;;;1.07;100.00;98363.45;107937;1267;58890;-64
2022/12/31 06:13:33;;;;;;;21.90;15.40;;;;;;;1.09;100.00;98365.83;107754;1264;70539;-63
2022/12/31 06:16:07;;;;;;;23.30;14.80;;;;;;;1.08;100.00;98361.71;107847;1267;69632;-62
2022/12/31 06:18:36;;;;;;;28.60;20.50;;;;;;;1.11;100.00;98366.64;108010;1267;69139;-62
2022/12/31 06:21:05;;;;;;;27.90;18.20;;;;;;;1.13;100.00;98370.54;107879;1267;59022;-63
2022/12/31 06:23:34;;;;;;;29.00;17.60;;;;;;;1.13;100.00;98365.55;107935;1267;58924;-63
2022/12/31 06:26:04;;;;;;;23.30;15.90;;;;;;;1.15;100.00;98369.48;107858;1271;70151;-62
2022/12/31 06:28:32;;;;;;;;;;;;;;;1.16;100.00;98371.85;107916;1266;69818;-63
2022/12/31 06:31:04;;;;;;;41.80;24.00;;;;;;;1.18;100.00;98370.61;107904;1267;69335;-62
2022/12/31 06:33:34;;;;;;;32.50;20.20;;;;;;;1.19;100.00;98369.89;107944;1267;58897;-62
2022/12/31 06:36:05;;;;;;;47.60;27.30;;;;;;;1.23;100.00;98372.21;107908;1266;58889;-62
2022/12/31 06:38:37;;;;;;;31.10;18.70;;;;;;;1.28;100.00;98377.45;107792;1267;71230;-63
2022/12/31 06:41:09;;;;;;;30.30;18.20;;;;;;;1.31;100.00;98379.29;107873;1263;69685;-63
2022/12/31 06:43:39;;;;;;;41.50;25.30;;;;;;;1.35;100.00;98377.32;107845;1267;69131;-63
2022/12/31 06:46:10;;;;;;;57.40;34.60;;;;;;;1.42;100.00;98375.13;107898;1263;58970;-63
2022/12/31 06:48:41;;;;;;;52.50;31.40;;;;;;;1.50;100.00;98381.11;107921;1264;58851;-63
2022/12/31 06:51:14;;;;;;;45.90;29.10;;;;;;;1.62;100.00;98379.50;107904;1267;71070;-63
2022/12/31 06:53:46;;;;;;;52.90;33.00;;;;;;;1.69;100.00;98377.27;107937;1267;69872;-63
2022/12/31 06:56:16;;;;;;;;;;;;;;;1.73;100.00;98377.19;107647;1269;68235;-63
2022/12/31 06:58:46;;;;;;;46.30;27.80;;;;;;;1.72;100.00;98377.57;107812;1267;58937;-63
2022/12/31 07:01:36;;;;;;;66.20;34.10;;;;;;;1.77;100.00;98385.70;107849;1267;58914;-63
2022/12/31 07:04:17;;;;;;;;;;;;;;;1.80;100.00;98395.08;107915;1267;71229;-63
2022/12/31 07:07:10;;;;;;;60.80;43.50;;;;;;;1.87;100.00;98397.52;107834;1264;69158;-63
2022/12/31 07:09:49;;;;;;;88.10;50.10;;;;;;;2.30;100.00;98390.66;107756;1267;69204;-63
2022/12/31 07:12:38;;;;;;;52.90;34.30;;;;;;;2.81;100.00;98394.39;107875;1267;58937;-63
2022/12/31 07:15:32;;;;;;;99.70;61.00;;;;;;;3.32;100.00;98403.69;107862;1267;58955;-63
2022/12/31 07:18:19;;;;;;;97.50;63.10;;;;;;;3.88;100.00;98407.05;107909;1267;71052;-64
2022/12/31 07:20:49;;;;;;;66.00;47.10;;;;;;;4.44;99.27;98404.95;107840;1266;69220;-63
2022/12/31 07:23:18;;;;;;;60.20;42.50;;;;;;;4.95;99.45;98404.47;107934;1267;68325;-63
2022/12/31 07:25:56;;;;;;;55.50;42.60;;;;;;;5.60;100.00;98405.79;107807;1267;58916;-65
2022/12/31 07:28:34;;;;;;;61.70;44.60;;;;;;;6.12;100.00;98402.46;107707;1270;58895;-64
2022/12/31 07:31:26;;;;;;;63.30;44.40;;;;;;;6.42;97.66;98396.76;107831;1267;70490;-64
2022/12/31 07:33:59;;;;;;;71.50;46.50;;;;;;;6.65;93.76;98388.02;107807;1267;69294;-64
2022/12/31 07:36:42;;;;;;;58.90;43.60;;;;;;;6.72;82.40;98388.27;107845;1261;69182;-64
2022/12/31 07:39:35;;;;;;;61.70;46.40;;;;;;;6.79;79.93;98397.68;107791;1266;58889;-65
2022/12/31 07:42:10;;;;;;;52.40;40.80;;;;;;;7.11;80.56;98402.56;107696;1267;58935;-64
2022/12/31 07:44:42;;;;;;;48.00;38.30;;;;;;;7.52;80.74;98405.45;107783;1267;71345;-64
2022/12/31 07:47:21;;;;;;;35.40;28.10;;;;;;;8.02;83.65;98407.65;107793;1263;69042;-64
2022/12/31 07:49:50;;;;;;;53.10;42.40;;;;;;;8.56;81.94;98404.75;107871;1267;69778;-65
2022/12/31 07:52:20;;;;;;;58.40;47.30;;;;;;;9.04;79.05;98403.61;107836;1267;58950;-65
2022/12/31 07:54:49;;;;;;;59.50;47.20;;;;;;;9.03;75.15;98404.17;107862;1267;58897;-63
2022/12/31 07:57:20;;;;;;;35.30;31.50;;;;;;;9.16;73.30;98409.80;107890;1267;69944;-63
2022/12/31 07:59:54;;;;;;;42.70;37.60;;;;;;;9.47;72.08;98409.06;107873;1267;69304;-64
2022/12/31 08:02:57;;;;;;;46.50;38.30;;;;;;;9.92;71.47;98408.39;107803;1267;69886;-64
2022/12/31 08:05:44;;;;;;;41.30;35.50;;;;;;;10.31;69.61;98403.30;107841;1267;58946;-64
2022/12/31 08:08:22;;;;;;;33.30;29.10;;;;;;;10.07;68.28;98408.42;107918;1264;58897;-64
2022/12/31 08:11:07;;;;;;;33.60;30.00;;;;;;;9.42;69.96;98411.74;107882;1267;70738;-64
2022/12/31 08:13:39;;;;;;;37.10;31.60;;;;;;;8.45;73.02;98414.16;107946;1269;69162;-64
2022/12/31 08:16:12;;;;;;;37.50;31.80;;;;;;;8.12;75.75;98417.08;107937;1267;68651;-64
2022/12/31 08:18:41;;;;;;;38.40;32.30;;;;;;;7.95;77.34;98420.86;107932;1267;58951;-64
2022/12/31 08:21:31;;;;;;;36.70;32.80;;;;;;;7.68;79.40;98422.62;107956;1266;58893;-64
2022/12/31 08:24:08;;;;;;;35.10;30.60;;;;;;;7.40;80.81;98433.70;107884;1267;70434;-64
2022/12/31 08:26:42;;;;;;;31.70;27.10;;;;;;;7.34;81.22;98436.60;107930;1267;68686;-64
2022/12/31 08:29:30;;;;;;;25.40;22.40;;;;;;;7.01;82.89;98438.02;107840;1267;69960;-64
2022/12/31 08:32:09;;;;;;;23.50;20.00;;;;;;;6.89;83.84;98436.95;107919;1268;58929;-64
2022/12/31 08:34:59;;;;;;;21.80;19.20;;;;;;;6.91;83.62;98438.61;107951;1267;58930;-64
2022/12/31 08:37:42;;;;;;;20.80;18.50;;;;;;;6.84;83.73;98442.88;107897;1267;71509;-64
2022/12/31 08:40:17;;;;;;;21.70;18.50;;;;;;;6.41;86.11;98445.84;107977;1267;69143;-64
2022/12/31 08:43:00;;;;;;;21.40;19.00;;;;;;;6.41;87.61;98444.25;107901;1267;68481;-64
2022/12/31 08:45:40;;;;;;;26.00;20.80;;;;;;;6.31;88.71;98447.41;107836;1265;58942;-64
2022/12/31 08:48:12;;;;;;;22.30;19.60;;;;;;;6.29;89.81;98448.52;107911;1267;58969;-64
2022/12/31 08:50:41;;;;;;;20.10;17.90;;;;;;;6.51;89.58;98449.90;107892;1267;70478;-64
2022/12/31 08:53:10;;;;;;;24.00;18.80;;;;;;;6.60;90.18;98443.49;107899;1263;69943;-64
2022/12/31 08:55:41;;;;;;;24.00;20.30;;;;;;;6.72;90.74;98444.58;107867;1267;69184;-64
2022/12/31 08:58:31;;;;;;;34.50;28.70;;;;;;;6.87;92.53;98446.20;107765;1270;58963;-64
2022/12/31 09:01:00;;;;;;;37.10;31.30;;;;;;;6.97;92.82;98440.44;107963;1265;58887;-64
2022/12/31 09:03:32;;;;;;;39.90;31.50;;;;;;;7.03;92.54;98437.88;107989;1267;70582;-64
2022/12/31 09:06:09;;;;;;;37.70;29.40;;;;;;;7.09;92.13;98436.44;107847;1267;69206;-64
2022/12/31 09:09:02;;;;;;;45.20;31.10;;;;;;;7.15;91.37;98439.31;107912;1267;69289;-64
2022/12/31 09:11:49;;;;;;;33.00;25.30;;;;;;;7.17;91.14;98432.83;107874;1267;58967;-64
2022/12/31 09:14:27;;;;;;;33.20;23.90;;;;;;;7.27;91.51;98431.34;108028;1264;58970;-64
2022/12/31 09:17:09;;;;;;;33.20;25.90;;;;;;;7.98;91.59;98429.54;107881;1267;71261;-64
2022/12/31 09:19:38;;;;;;;23.70;19.10;;;;;;;9.09;87.11;98416.41;107960;1263;68495;-64
2022/12/31 09:22:09;;;;;;;19.40;16.60;;;;;;;10.13;83.76;98403.25;107870;1267;69965;-63
2022/12/31 09:24:38;;;;;;;22.40;19.80;;;;;;;11.22;79.68;98395.03;107939;1267;58951;-64
2022/12/31 09:27:39;;;;;;;26.10;20.60;;;;;;;12.13;70.65;98384.20;107872;1267;58957;-64
2022/12/31 09:30:13;;;;;;;27.60;23.90;;;;;;;13.33;73.82;98373.70;107911;1267;70532;-65
2022/12/31 09:33:03;;;;;;;32.20;28.70;;;;;;;13.98;63.52;98376.30;107876;1267;69021;-65
2022/12/31 09:35:47;;;;;;;28.90;25.80;;;;;;;14.53;60.82;98392.14;107869;1267;69512;-64
2022/12/31 09:38:21;;;;;;;27.10;24.30;;;;;;;15.23;58.67;98398.54;107893;1267;58952;-64
2022/12/31 09:41:15;;;;;;;20.40;18.00;;;;;;;15.95;57.29;98406.67;107868;1262;58904;-64
2022/12/31 09:44:35;;;;;;;21.50;19.20;;;;;;;16.21;55.81;98405.11;107876;1263;71568;-64
2022/12/31 09:47:16;;;;;;;17.50;15.80;;;;;;;16.73;53.80;98393.00;107891;1267;68523;-63
2022/12/31 09:50:27;;;;;;;10.90;9.60;;;;;;;17.10;50.79;98384.86;107887;1267;68949;-64
2022/12/31 09:53:20;;;;;;;9.50;8.10;;;;;;;17.78;50.05;98376.77;107824;1267;58941;-65
2022/12/31 09:55:55;;;;;;;10.80;9.00;;;;;;;18.26;49.44;98379.58;107800;1267;58904;-64
2022/12/31 09:58:27;;;;;;;10.20;8.90;;;;;;;18.55;49.80;98382.45;107763;1266;70409;-64
2022/12/31 10:01:01;;;;;;;13.20;10.00;;;;;;;19.22;49.45;98387.31;107772;1267;68665;-63
2022/12/31 10:04:04;;;;;;;9.80;8.40;;;;;;;18.20;46.66;98386.80;107815;1267;69757;-63
2022/12/31 10:06:35;;;;;;;11.30;9.30;;;;;;;18.54;46.26;98382.15;107784;1263;58919;-64
2022/12/31 10:09:33;;;;;;;12.20;11.00;;;;;;;18.75;47.51;98378.52;107794;1259;58854;-64
2022/12/31 10:12:27;;;;;;;10.80;9.80;;;;;;;19.21;46.53;98381.19;107732;1267;70570;-64
2022/12/31 10:15:27;;;;;;;12.00;10.80;;;;;;;19.68;46.69;98381.55;107816;1265;69207;-65
2022/12/31 10:18:14;;;;;;;;;;;;;;;19.23;46.42;98373.08;107759;1267;69694;-65
2022/12/31 10:20:46;;;;;;;11.60;10.40;;;;;;;18.84;46.24;98369.06;107814;1267;58955;-64
2022/12/31 10:23:42;;;;;;;13.60;12.30;;;;;;;18.23;47.47;98372.45;107833;1267;58947;-63
2022/12/31 10:26:51;;;;;;;11.00;9.90;;;;;;;17.54;48.86;98371.17;107832;1261;70600;-64
2022/12/31 10:29:39;;;;;;;15.00;13.20;;;;;;;16.77;50.00;98357.48;107815;1263;70232;-63
2022/12/31 10:32:28;;;;;;;11.60;10.30;;;;;;;15.81;52.47;98359.98;107802;1266;69258;-64
2022/12/31 10:35:12;;;;;;;11.70;10.50;;;;;;;15.18;53.29;98359.20;107778;1267;58889;-64
2022/12/31 10:37:53;;;;;;;12.70;10.20;;;;;;;14.68;54.74;98342.64;107773;1267;58899;-64
2022/12/31 10:40:40;;;;;;;11.30;10.10;;;;;;;14.18;56.18;98338.59;107793;1266;69913;-64
2022/12/31 10:43:43;;;;;;;11.70;9.70;;;;;;;13.65;58.36;98349.77;107822;1267;68404;-64
2022/12/31 10:46:29;;;;;;;11.90;9.90;;;;;;;13.15;59.55;98347.58;107813;1262;69914;-65
2022/12/31 10:49:16;;;;;;;9.40;7.90;;;;;;;12.86;60.43;98341.73;107805;1267;58959;-64
2022/12/31 10:52:20;;;;;;;10.60;9.20;;;;;;;12.44;62.38;98347.80;107760;1267;58894;-64
2022/12/31 10:55:04;;;;;;;10.50;8.10;;;;;;;12.15;64.27;98351.23;107800;1267;71985;-64
2022/12/31 10:57:52;;;;;;;11.50;8.30;;;;;;;11.94;65.18;98357.32;107812;1263;69667;-64
2022/12/31 11:00:51;;;;;;;10.00;7.60;;;;;;;11.75;65.19;98355.86;107809;1272;69869;-64
2022/12/31 11:03:53;;;;;;;10.20;7.80;;;;;;;11.47;67.43;98355.33;107870;1267;59316;-64
2022/12/31 11:06:47;;;;;;;11.20;8.50;;;;;;;11.32;69.82;98350.17;107820;1268;58851;-63
2022/12/31 11:09:25;;;;;;;10.10;9.00;;;;;;;11.16;70.33;98352.66;107798;1266;70558;-65
2022/12/31 11:12:13;;;;;;;10.80;8.30;;;;;;;11.09;69.95;98354.33;107915;1262;69615;-64
2022/12/31 11:15:31;;;;;;;9.70;8.70;;;;;;;10.96;70.82;98353.70;107830;1267;69745;-64
2022/12/31 11:18:13;;;;;;;12.20;9.00;;;;;;;10.87;71.71;98352.69;107882;1266;58966;-64
2022/12/31 11:20:59;;;;;;;11.30;9.80;;;;;;;10.78;72.96;98355.11;107864;1266;58922;-63
2022/12/31 11:23:59;;;;;;;12.20;10.20;;;;;;;10.76;72.07;98352.11;107940;1267;69604;-63
2022/12/31 11:26:54;;;;;;;10.80;9.30;;;;;;;10.59;73.01;98348.86;107945;1262;69179;-64
2022/12/31 11:29:29;;;;;;;10.90;9.60;;;;;;;10.54;73.04;98350.21;107910;1267;69896;-63
2022/12/31 11:32:38;;;;;;;13.30;10.10;;;;;;;10.49;74.20;98354.16;107883;1266;58899;-63
2022/12/31 11:35:28;;;;;;;10.60;7.90;;;;;;;10.49;73.07;98355.54;107828;1267;58893;-64
2022/12/31 11:38:16;;;;;;;11.50;9.50;;;;;;;10.53;73.72;98356.02;107679;1267;71258;-64
2022/12/31 11:41:18;;;;;;;14.10;9.80;;;;;;;10.48;75.24;98357.04;107922;1267;69852;-64
2022/12/31 11:43:47;;;;;;;12.20;10.30;;;;;;;10.47;74.40;98355.14;107803;1263;68926;-63
2022/12/31 11:46:34;;;;;;;9.40;8.30;;;;;;;10.48;72.72;98351.61;107792;1263;58910;-63
2022/12/31 11:49:23;;;;;;;10.50;8.80;;;;;;;10.44;74.07;98353.41;107761;1267;58858;-64
2022/12/31 11:52:10;;;;;;;8.10;7.10;;;;;;;10.45;72.33;98344.84;107971;1267;70514;-64
2022/12/31 11:54:49;;;;;;;11.60;9.50;;;;;;;10.44;71.67;98340.88;107792;1262;69255;-65
2022/12/31 11:57:21;;;;;;;14.60;11.30;;;;;;;10.41;72.05;98337.20;107832;1263;69198;-65
2022/12/31 11:59:57;;;;;;;14.10;12.20;;;;;;;10.40;73.11;98330.14;107786;1267;58959;-64
2022/12/31 12:02:33;;;;;;;13.80;10.30;;;;;;;10.41;73.14;98335.29;107757;1266;58924;-64
2022/12/31 12:05:05;;;;;;;12.00;8.20;;;;;;;10.46;72.42;98340.23;107779;1267;70647;-65